sensor_id;sensor_type;location;lat;lon;timestamp;pressure;altitude;pressure_sealevel;temperature;humidity
55914;BME280;58179;48.776;9.124;2022-08-11T00:01:45;97773.09;;;19.88;40.71
55914;BME280;58179;48.776;9.124;2022-08-11T00:04:13;97768.31;;;19.85;40.83
55914;BME280;58179;48.776;9.124;2022-08-11T00:06:44;97766.66;;;19.75;41.02
55914;BME280;58179;48.776;9.124;2022-08-11T00:09:14;97772.44;;;19.68;41.19
55914;BME280;58179;48.776;9.124;2022-08-11T00:11:45;97773.94;;;19.61;40.92
55914;BME280;58179;48.776;9.124;2022-08-11T00:14:18;97771.84;;;19.58;41.29
55914;BME280;58179;48.776;9.124;2022-08-11T00:16:54;97768.75;;;19.64;41.19
55914;BME280;58179;48.776;9.124;2022-08-11T00:19:24;97773.56;;;19.54;41.43
55914;BME280;58179;48.776;9.124;2022-08-11T00:21:53;97767.38;;;19.53;41.27
55914;BME280;58179;48.776;9.124;2022-08-11T00:24:21;97772.84;;;19.48;41.62
55914;BME280;58179;48.776;9.124;2022-08-11T00:26:49;97771.72;;;19.36;41.80
55914;BME280;58179;48.776;9.124;2022-08-11T00:29:16;97764.88;;;19.29;42.32
55914;BME280;58179;48.776;9.124;2022-08-11T00:31:46;97772.53;;;19.36;42.20
55914;BME280;58179;48.776;9.124;2022-08-11T00:34:17;97763.56;;;19.27;42.18
55914;BME280;58179;48.776;9.124;2022-08-11T00:36:49;97767.66;;;19.24;41.88
55914;BME280;58179;48.776;9.124;2022-08-11T00:39:21;97773.31;;;19.23;42.20
55914;BME280;58179;48.776;9.124;2022-08-11T00:42:08;97784.44;;;19.16;42.50
55914;BME280;58179;48.776;9.124;2022-08-11T00:44:54;97770.69;;;19.18;42.33
55914;BME280;58179;48.776;9.124;2022-08-11T00:47:41;97772.13;;;19.15;42.46
55914;BME280;58179;48.776;9.124;2022-08-11T00:50:17;97766.03;;;19.10;42.70
55914;BME280;58179;48.776;9.124;2022-08-11T00:53:06;97769.03;;;19.08;42.63
55914;BME280;58179;48.776;9.124;2022-08-11T00:56:06;97775.47;;;19.07;43.06
55914;BME280;58179;48.776;9.124;2022-08-11T01:02:05;97757.56;;;19.03;42.76
55914;BME280;58179;48.776;9.124;2022-08-11T01:05:38;97759.25;;;18.85;43.36
55914;BME280;58179;48.776;9.124;2022-08-11T01:12:20;97762.13;;;18.88;43.12
55914;BME280;58179;48.776;9.124;2022-08-11T01:15:57;97777.22;;;18.84;43.20
55914;BME280;58179;48.776;9.124;2022-08-11T01:19:11;97763.22;;;18.87;43.05
55914;BME280;58179;48.776;9.124;2022-08-11T01:29:27;97772.03;;;18.74;43.47
55914;BME280;58179;48.776;9.124;2022-08-11T01:33:08;97768.53;;;18.74;43.45
55914;BME280;58179;48.776;9.124;2022-08-11T01:43:18;97756.72;;;18.75;43.80
55914;BME280;58179;48.776;9.124;2022-08-11T01:46:13;97759.78;;;18.68;43.89
55914;BME280;58179;48.776;9.124;2022-08-11T01:48:50;97759.56;;;18.65;44.32
55914;BME280;58179;48.776;9.124;2022-08-11T01:51:33;97752.84;;;18.67;43.98
55914;BME280;58179;48.776;9.124;2022-08-11T01:54:05;97745.31;;;18.69;44.02
55914;BME280;58179;48.776;9.124;2022-08-11T01:57:11;97754.81;;;18.62;44.09
55914;BME280;58179;48.776;9.124;2022-08-11T01:59:46;97747.34;;;18.59;44.37
55914;BME280;58179;48.776;9.124;2022-08-11T02:02:26;97742.84;;;18.54;44.57
55914;BME280;58179;48.776;9.124;2022-08-11T02:05:46;97753.84;;;18.52;44.42
55914;BME280;58179;48.776;9.124;2022-08-11T02:08:34;97744.19;;;18.57;44.75
55914;BME280;58179;48.776;9.124;2022-08-11T02:11:17;97751.25;;;18.47;44.88
55914;BME280;58179;48.776;9.124;2022-08-11T02:14:17;97738.44;;;18.44;45.29
55914;BME280;58179;48.776;9.124;2022-08-11T02:17:12;97744.69;;;18.40;45.19
55914;BME280;58179;48.776;9.124;2022-08-11T02:19:56;97743.28;;;18.42;45.54
55914;BME280;58179;48.776;9.124;2022-08-11T02:22:54;97742.28;;;18.38;45.49
55914;BME280;58179;48.776;9.124;2022-08-11T02:25:54;97751.69;;;18.36;45.83
55914;BME280;58179;48.776;9.124;2022-08-11T02:28:31;97756.56;;;18.34;46.02
55914;BME280;58179;48.776;9.124;2022-08-11T02:31:07;97745.84;;;18.34;45.86
55914;BME280;58179;48.776;9.124;2022-08-11T02:34:05;97743.31;;;18.24;46.07
55914;BME280;58179;48.776;9.124;2022-08-11T02:36:41;97741.38;;;18.10;46.36
55914;BME280;58179;48.776;9.124;2022-08-11T02:39:13;97739.06;;;18.04;46.47
55914;BME280;58179;48.776;9.124;2022-08-11T02:41:51;97734.00;;;18.02;46.71
55914;BME280;58179;48.776;9.124;2022-08-11T02:45:00;97742.84;;;18.03;46.55
55914;BME280;58179;48.776;9.124;2022-08-11T02:47:45;97743.84;;;18.07;46.92
55914;BME280;58179;48.776;9.124;2022-08-11T02:50:37;97741.66;;;17.90;47.39
55914;BME280;58179;48.776;9.124;2022-08-11T02:53:12;97736.38;;;17.85;47.35
55914;BME280;58179;48.776;9.124;2022-08-11T02:55:52;97744.66;;;17.89;47.61
55914;BME280;58179;48.776;9.124;2022-08-11T02:58:45;97733.63;;;17.90;47.88
55914;BME280;58179;48.776;9.124;2022-08-11T03:01:42;97734.59;;;17.81;48.08
55914;BME280;58179;48.776;9.124;2022-08-11T03:04:17;97747.16;;;17.80;48.29
55914;BME280;58179;48.776;9.124;2022-08-11T03:06:51;97739.41;;;17.78;48.32
55914;BME280;58179;48.776;9.124;2022-08-11T03:09:41;97744.25;;;17.76;48.12
55914;BME280;58179;48.776;9.124;2022-08-11T03:12:12;97735.06;;;17.64;48.66
55914;BME280;58179;48.776;9.124;2022-08-11T03:15:05;97736.94;;;17.63;48.40
55914;BME280;58179;48.776;9.124;2022-08-11T03:18:03;97740.00;;;17.52;48.86
55914;BME280;58179;48.776;9.124;2022-08-11T03:20:43;97743.00;;;17.45;49.12
55914;BME280;58179;48.776;9.124;2022-08-11T03:23:17;97747.81;;;17.48;48.72
55914;BME280;58179;48.776;9.124;2022-08-11T03:25:55;97748.72;;;17.38;49.00
55914;BME280;58179;48.776;9.124;2022-08-11T03:28:29;97745.84;;;17.35;49.02
55914;BME280;58179;48.776;9.124;2022-08-11T03:31:19;97760.34;;;17.29;49.26
55914;BME280;58179;48.776;9.124;2022-08-11T03:33:57;97749.34;;;17.30;49.26
55914;BME280;58179;48.776;9.124;2022-08-11T03:37:17;97768.66;;;17.27;49.40
55914;BME280;58179;48.776;9.124;2022-08-11T03:40:14;97757.91;;;17.32;49.45
55914;BME280;58179;48.776;9.124;2022-08-11T03:43:17;97763.06;;;17.24;49.45
55914;BME280;58179;48.776;9.124;2022-08-11T03:45:54;97763.13;;;17.19;49.82
55914;BME280;58179;48.776;9.124;2022-08-11T03:48:35;97766.59;;;17.19;50.00
55914;BME280;58179;48.776;9.124;2022-08-11T03:51:12;97760.53;;;17.14;49.84
55914;BME280;58179;48.776;9.124;2022-08-11T03:53:55;97763.84;;;17.00;50.11
55914;BME280;58179;48.776;9.124;2022-08-11T04:00:37;97769.47;;;16.99;50.68
55914;BME280;58179;48.776;9.124;2022-08-11T04:03:50;97762.72;;;17.07;50.63
55914;BME280;58179;48.776;9.124;2022-08-11T04:13:34;97763.97;;;16.90;50.78
55914;BME280;58179;48.776;9.124;2022-08-11T04:19:44;97760.50;;;16.90;50.92
55914;BME280;58179;48.776;9.124;2022-08-11T04:25:28;97756.69;;;16.96;51.24
55914;BME280;58179;48.776;9.124;2022-08-11T04:28:30;97756.09;;;16.99;50.99
55914;BME280;58179;48.776;9.124;2022-08-11T04:31:23;97751.09;;;16.92;51.24
55914;BME280;58179;48.776;9.124;2022-08-11T04:34:35;97754.88;;;16.91;51.32
55914;BME280;58179;48.776;9.124;2022-08-11T04:37:36;97761.84;;;16.87;51.64
55914;BME280;58179;48.776;9.124;2022-08-11T04:40:53;97754.22;;;16.76;52.03
55914;BME280;58179;48.776;9.124;2022-08-11T04:44:06;97756.88;;;16.76;52.18
55914;BME280;58179;48.776;9.124;2022-08-11T04:47:16;97763.53;;;16.78;52.47
55914;BME280;58179;48.776;9.124;2022-08-11T04:50:19;97769.44;;;16.75;52.56
55914;BME280;58179;48.776;9.124;2022-08-11T04:53:38;97767.56;;;16.76;53.13
55914;BME280;58179;48.776;9.124;2022-08-11T04:56:28;97764.38;;;16.74;53.06
55914;BME280;58179;48.776;9.124;2022-08-11T05:00:01;97767.78;;;16.79;52.96
55914;BME280;58179;48.776;9.124;2022-08-11T05:03:36;97773.06;;;16.89;52.98
55914;BME280;58179;48.776;9.124;2022-08-11T05:10:09;97771.50;;;17.12;52.75
55914;BME280;58179;48.776;9.124;2022-08-11T05:12:43;97780.59;;;17.11;52.84
55914;BME280;58179;48.776;9.124;2022-08-11T05:15:12;97777.06;;;17.16;52.93
55914;BME280;58179;48.776;9.124;2022-08-11T05:18:06;97770.53;;;17.27;53.27
55914;BME280;58179;48.776;9.124;2022-08-11T05:20:55;97768.53;;;17.37;53.16
55914;BME280;58179;48.776;9.124;2022-08-11T05:23:47;97767.88;;;17.51;53.35
55914;BME280;58179;48.776;9.124;2022-08-11T05:26:43;97776.84;;;17.60;52.35
55914;BME280;58179;48.776;9.124;2022-08-11T05:29:44;97778.19;;;17.62;52.66
55914;BME280;58179;48.776;9.124;2022-08-11T05:32:36;97779.69;;;17.68;53.00
55914;BME280;58179;48.776;9.124;2022-08-11T05:35:28;97768.34;;;17.76;53.13
55914;BME280;58179;48.776;9.124;2022-08-11T05:37:56;97772.28;;;17.84;53.24
55914;BME280;58179;48.776;9.124;2022-08-11T05:40:50;97777.78;;;17.93;53.36
55914;BME280;58179;48.776;9.124;2022-08-11T05:43:41;97782.22;;;18.02;53.10
55914;BME280;58179;48.776;9.124;2022-08-11T05:46:27;97776.69;;;18.12;52.77
55914;BME280;58179;48.776;9.124;2022-08-11T05:49:13;97779.53;;;18.21;52.58
55914;BME280;58179;48.776;9.124;2022-08-11T05:51:59;97780.47;;;18.30;51.29
55914;BME280;58179;48.776;9.124;2022-08-11T05:54:44;97785.19;;;18.38;50.77
55914;BME280;58179;48.776;9.124;2022-08-11T05:57:32;97783.44;;;18.47;49.86
55914;BME280;58179;48.776;9.124;2022-08-11T06:00:05;97787.63;;;18.53;50.19
55914;BME280;58179;48.776;9.124;2022-08-11T06:02:40;97780.81;;;18.61;50.62
55914;BME280;58179;48.776;9.124;2022-08-11T06:05:08;97776.97;;;18.67;50.50
55914;BME280;58179;48.776;9.124;2022-08-11T06:07:35;97776.88;;;18.72;50.34
55914;BME280;58179;48.776;9.124;2022-08-11T06:10:02;97780.28;;;18.78;50.34
55914;BME280;58179;48.776;9.124;2022-08-11T06:12:32;97779.41;;;18.82;50.59
55914;BME280;58179;48.776;9.124;2022-08-11T06:15:05;97773.94;;;18.87;50.25
55914;BME280;58179;48.776;9.124;2022-08-11T06:17:35;97782.72;;;18.93;49.85
55914;BME280;58179;48.776;9.124;2022-08-11T06:20:10;97786.66;;;18.95;49.10
55914;BME280;58179;48.776;9.124;2022-08-11T06:22:38;97775.06;;;19.00;49.07
55914;BME280;58179;48.776;9.124;2022-08-11T06:25:08;97779.03;;;19.03;48.98
55914;BME280;58179;48.776;9.124;2022-08-11T06:27:37;97781.13;;;19.06;48.93
55914;BME280;58179;48.776;9.124;2022-08-11T06:30:07;97789.41;;;19.09;48.56
55914;BME280;58179;48.776;9.124;2022-08-11T06:32:42;97786.63;;;19.14;48.42
55914;BME280;58179;48.776;9.124;2022-08-11T06:35:18;97789.50;;;19.18;48.86
55914;BME280;58179;48.776;9.124;2022-08-11T06:38:01;97782.47;;;19.22;48.31
55914;BME280;58179;48.776;9.124;2022-08-11T06:40:45;97785.66;;;19.24;48.05
55914;BME280;58179;48.776;9.124;2022-08-11T06:43:47;97786.63;;;19.28;47.78
55914;BME280;58179;48.776;9.124;2022-08-11T06:46:24;97781.16;;;19.33;47.70
55914;BME280;58179;48.776;9.124;2022-08-11T06:48:53;97789.13;;;19.38;47.67
55914;BME280;58179;48.776;9.124;2022-08-11T06:51:20;97787.13;;;19.44;47.54
55914;BME280;58179;48.776;9.124;2022-08-11T06:53:48;97777.13;;;19.49;47.65
55914;BME280;58179;48.776;9.124;2022-08-11T06:56:22;97788.53;;;19.55;47.48
55914;BME280;58179;48.776;9.124;2022-08-11T06:59:10;97785.78;;;19.60;47.30
55914;BME280;58179;48.776;9.124;2022-08-11T07:02:04;97784.56;;;19.66;46.88
55914;BME280;58179;48.776;9.124;2022-08-11T07:04:39;97787.47;;;19.69;46.88
55914;BME280;58179;48.776;9.124;2022-08-11T07:10:52;97787.44;;;19.83;46.36
55914;BME280;58179;48.776;9.124;2022-08-11T07:16:17;97781.03;;;19.93;45.96
55914;BME280;58179;48.776;9.124;2022-08-11T07:18:47;97784.13;;;20.00;45.89
55914;BME280;58179;48.776;9.124;2022-08-11T07:21:34;97776.75;;;20.05;45.06
55914;BME280;58179;48.776;9.124;2022-08-11T07:24:24;97774.16;;;20.14;45.32
55914;BME280;58179;48.776;9.124;2022-08-11T07:27:14;97767.25;;;20.22;45.09
55914;BME280;58179;48.776;9.124;2022-08-11T07:30:02;97777.25;;;20.30;44.71
55914;BME280;58179;48.776;9.124;2022-08-11T07:32:34;97773.09;;;20.37;44.92
55914;BME280;58179;48.776;9.124;2022-08-11T07:35:07;97771.09;;;20.43;44.88
55914;BME280;58179;48.776;9.124;2022-08-11T07:37:34;97769.06;;;20.48;44.83
55914;BME280;58179;48.776;9.124;2022-08-11T07:40:02;97765.66;;;20.57;44.76
55914;BME280;58179;48.776;9.124;2022-08-11T07:42:31;97764.91;;;20.65;44.43
55914;BME280;58179;48.776;9.124;2022-08-11T07:45:04;97765.09;;;20.68;43.74
55914;BME280;58179;48.776;9.124;2022-08-11T07:47:52;97776.84;;;20.72;43.22
55914;BME280;58179;48.776;9.124;2022-08-11T07:50:40;97771.31;;;20.77;43.39
55914;BME280;58179;48.776;9.124;2022-08-11T07:53:26;97768.19;;;20.84;43.58
55914;BME280;58179;48.776;9.124;2022-08-11T07:55:58;97765.84;;;20.91;43.76
55914;BME280;58179;48.776;9.124;2022-08-11T07:58:26;97767.78;;;20.99;43.71
55914;BME280;58179;48.776;9.124;2022-08-11T08:01:18;97760.88;;;21.07;43.27
55914;BME280;58179;48.776;9.124;2022-08-11T08:04:06;97760.41;;;21.13;43.14
55914;BME280;58179;48.776;9.124;2022-08-11T08:06:52;97765.09;;;21.21;43.10
55914;BME280;58179;48.776;9.124;2022-08-11T08:09:37;97769.41;;;21.31;42.81
55914;BME280;58179;48.776;9.124;2022-08-11T08:12:23;97762.97;;;21.41;42.82
55914;BME280;58179;48.776;9.124;2022-08-11T08:15:10;97768.03;;;21.51;42.45
55914;BME280;58179;48.776;9.124;2022-08-11T08:17:58;97766.34;;;21.63;42.32
55914;BME280;58179;48.776;9.124;2022-08-11T08:20:29;97766.03;;;21.74;41.79
55914;BME280;58179;48.776;9.124;2022-08-11T08:22:59;97761.97;;;21.85;41.69
55914;BME280;58179;48.776;9.124;2022-08-11T08:25:29;97762.94;;;21.97;40.94
55914;BME280;58179;48.776;9.124;2022-08-11T08:27:57;97771.22;;;22.10;40.63
55914;BME280;58179;48.776;9.124;2022-08-11T08:30:26;97769.78;;;22.21;40.16
55914;BME280;58179;48.776;9.124;2022-08-11T08:33:12;97765.81;;;22.35;39.54
55914;BME280;58179;48.776;9.124;2022-08-11T08:35:41;97774.41;;;22.46;39.34
55914;BME280;58179;48.776;9.124;2022-08-11T08:38:10;97768.66;;;22.56;38.70
55914;BME280;58179;48.776;9.124;2022-08-11T08:40:39;97778.50;;;22.69;38.20
55914;BME280;58179;48.776;9.124;2022-08-11T08:43:09;97774.69;;;22.79;37.77
55914;BME280;58179;48.776;9.124;2022-08-11T08:45:37;97780.25;;;22.91;37.19
55914;BME280;58179;48.776;9.124;2022-08-11T08:48:08;97770.34;;;23.04;37.31
55914;BME280;58179;48.776;9.124;2022-08-11T08:50:44;97784.44;;;23.18;37.32
55914;BME280;58179;48.776;9.124;2022-08-11T08:53:35;97778.69;;;23.28;36.26
55914;BME280;58179;48.776;9.124;2022-08-11T08:56:04;97770.41;;;23.33;34.83
55914;BME280;58179;48.776;9.124;2022-08-11T08:58:35;97768.19;;;23.35;34.31
55914;BME280;58179;48.776;9.124;2022-08-11T09:01:03;97772.16;;;23.38;34.68
55914;BME280;58179;48.776;9.124;2022-08-11T09:03:30;97772.09;;;23.46;35.18
55914;BME280;58179;48.776;9.124;2022-08-11T09:06:02;97768.13;;;23.52;34.99
55914;BME280;58179;48.776;9.124;2022-08-11T09:08:30;97778.88;;;23.61;35.17
55914;BME280;58179;48.776;9.124;2022-08-11T09:10:57;97771.84;;;23.69;34.39
55914;BME280;58179;48.776;9.124;2022-08-11T09:13:44;97766.22;;;23.82;34.85
55914;BME280;58179;48.776;9.124;2022-08-11T09:16:11;97772.50;;;23.95;34.61
55914;BME280;58179;48.776;9.124;2022-08-11T09:18:39;97764.44;;;24.07;34.79
55914;BME280;58179;48.776;9.124;2022-08-11T09:21:11;97762.69;;;24.11;32.24
55914;BME280;58179;48.776;9.124;2022-08-11T09:23:40;97765.34;;;24.20;32.83
55914;BME280;58179;48.776;9.124;2022-08-11T09:26:25;97764.63;;;24.32;32.63
55914;BME280;58179;48.776;9.124;2022-08-11T09:29:11;97781.09;;;24.39;32.46
55914;BME280;58179;48.776;9.124;2022-08-11T09:31:38;97770.34;;;24.51;32.26
55914;BME280;58179;48.776;9.124;2022-08-11T09:34:04;97772.53;;;24.57;31.70
55914;BME280;58179;48.776;9.124;2022-08-11T09:36:33;97767.47;;;24.68;31.42
55914;BME280;58179;48.776;9.124;2022-08-11T09:39:18;97768.03;;;24.74;31.43
55914;BME280;58179;48.776;9.124;2022-08-11T09:42:04;97772.72;;;24.85;31.35
55914;BME280;58179;48.776;9.124;2022-08-11T09:44:34;97749.75;;;24.91;30.94
55914;BME280;58179;48.776;9.124;2022-08-11T09:47:21;97769.63;;;24.95;31.12
55914;BME280;58179;48.776;9.124;2022-08-11T09:49:48;97759.59;;;25.08;31.34
55914;BME280;58179;48.776;9.124;2022-08-11T09:52:19;97744.16;;;25.21;31.54
55914;BME280;58179;48.776;9.124;2022-08-11T09:54:48;97752.97;;;25.42;30.87
55914;BME280;58179;48.776;9.124;2022-08-11T09:57:18;97759.88;;;25.76;30.80
55914;BME280;58179;48.776;9.124;2022-08-11T10:00:08;97741.03;;;26.19;29.84
55914;BME280;58179;48.776;9.124;2022-08-11T10:02:41;97745.06;;;26.66;28.79
55914;BME280;58179;48.776;9.124;2022-08-11T10:05:08;97747.78;;;27.09;27.85
55914;BME280;58179;48.776;9.124;2022-08-11T10:07:55;97746.09;;;27.52;26.98
55914;BME280;58179;48.776;9.124;2022-08-11T10:10:22;97743.72;;;27.82;26.88
55914;BME280;58179;48.776;9.124;2022-08-11T10:12:53;97743.91;;;28.08;26.55
55914;BME280;58179;48.776;9.124;2022-08-11T10:15:21;97739.72;;;28.30;25.86
55914;BME280;58179;48.776;9.124;2022-08-11T10:18:05;97752.41;;;28.41;25.95
55914;BME280;58179;48.776;9.124;2022-08-11T10:20:54;97750.03;;;28.40;26.03
55914;BME280;58179;48.776;9.124;2022-08-11T10:23:25;97736.56;;;28.28;26.08
55914;BME280;58179;48.776;9.124;2022-08-11T10:26:49;97742.03;;;28.12;26.21
55914;BME280;58179;48.776;9.124;2022-08-11T10:29:20;97743.94;;;27.92;25.98
55914;BME280;58179;48.776;9.124;2022-08-11T10:32:07;97737.91;;;27.83;25.54
55914;BME280;58179;48.776;9.124;2022-08-11T10:34:52;97743.19;;;27.76;25.99
55914;BME280;58179;48.776;9.124;2022-08-11T10:37:22;97738.81;;;27.71;25.21
55914;BME280;58179;48.776;9.124;2022-08-11T10:39:51;97731.19;;;27.77;25.48
55914;BME280;58179;48.776;9.124;2022-08-11T10:42:17;97721.44;;;27.76;26.08
55914;BME280;58179;48.776;9.124;2022-08-11T10:45:05;97721.59;;;27.83;26.24
55914;BME280;58179;48.776;9.124;2022-08-11T10:47:51;97725.94;;;28.03;25.58
55914;BME280;58179;48.776;9.124;2022-08-11T10:50:18;97728.97;;;28.18;24.72
55914;BME280;58179;48.776;9.124;2022-08-11T10:53:03;97709.56;;;28.19;25.24
55914;BME280;58179;48.776;9.124;2022-08-11T10:55:49;97723.94;;;28.20;25.19
55914;BME280;58179;48.776;9.124;2022-08-11T10:58:36;97707.47;;;28.32;25.10
55914;BME280;58179;48.776;9.124;2022-08-11T11:01:15;97710.25;;;28.35;25.08
55914;BME280;58179;48.776;9.124;2022-08-11T11:03:43;97710.25;;;28.35;24.40
55914;BME280;58179;48.776;9.124;2022-08-11T11:06:21;97710.34;;;28.20;23.58
55914;BME280;58179;48.776;9.124;2022-08-11T11:08:57;97707.19;;;28.18;24.32
55914;BME280;58179;48.776;9.124;2022-08-11T11:11:31;97701.50;;;28.07;24.57
55914;BME280;58179;48.776;9.124;2022-08-11T11:14:19;97702.44;;;28.15;25.28
55914;BME280;58179;48.776;9.124;2022-08-11T11:17:06;97698.69;;;28.19;24.95
55914;BME280;58179;48.776;9.124;2022-08-11T11:19:55;97692.59;;;28.26;24.87
55914;BME280;58179;48.776;9.124;2022-08-11T11:22:22;97702.38;;;28.30;24.33
55914;BME280;58179;48.776;9.124;2022-08-11T11:25:19;97695.72;;;28.28;24.30
55914;BME280;58179;48.776;9.124;2022-08-11T11:28:02;97678.72;;;28.34;24.65
55914;BME280;58179;48.776;9.124;2022-08-11T11:30:41;97674.34;;;28.10;23.25
55914;BME280;58179;48.776;9.124;2022-08-11T11:33:18;97685.31;;;28.14;23.86
55914;BME280;58179;48.776;9.124;2022-08-11T11:35:58;97671.16;;;28.24;24.18
55914;BME280;58179;48.776;9.124;2022-08-11T11:38:29;97672.88;;;28.32;24.31
55914;BME280;58179;48.776;9.124;2022-08-11T11:40:55;97671.91;;;28.44;24.47
55914;BME280;58179;48.776;9.124;2022-08-11T11:43:41;97658.41;;;28.51;23.76
55914;BME280;58179;48.776;9.124;2022-08-11T11:46:08;97665.16;;;28.57;24.37
55914;BME280;58179;48.776;9.124;2022-08-11T11:48:36;97661.16;;;28.74;23.99
55914;BME280;58179;48.776;9.124;2022-08-11T11:51:03;97662.09;;;28.81;23.27
55914;BME280;58179;48.776;9.124;2022-08-11T11:53:29;97662.53;;;28.83;22.86
55914;BME280;58179;48.776;9.124;2022-08-11T11:55:56;97652.91;;;28.90;23.25
55914;BME280;58179;48.776;9.124;2022-08-11T11:58:22;97659.25;;;28.97;23.09
55914;BME280;58179;48.776;9.124;2022-08-11T12:01:09;97655.13;;;29.07;23.00
55914;BME280;58179;48.776;9.124;2022-08-11T12:03:44;97658.69;;;29.11;22.97
55914;BME280;58179;48.776;9.124;2022-08-11T12:06:13;97656.34;;;29.09;22.22
55914;BME280;58179;48.776;9.124;2022-08-11T12:08:40;97647.31;;;29.05;22.30
55914;BME280;58179;48.776;9.124;2022-08-11T12:11:10;97640.75;;;29.10;22.52
55914;BME280;58179;48.776;9.124;2022-08-11T12:13:58;97646.22;;;29.10;22.43
55914;BME280;58179;48.776;9.124;2022-08-11T12:16:26;97639.00;;;29.21;22.46
55914;BME280;58179;48.776;9.124;2022-08-11T12:18:56;97643.22;;;29.18;21.97
55914;BME280;58179;48.776;9.124;2022-08-11T12:21:23;97647.84;;;29.14;21.54
55914;BME280;58179;48.776;9.124;2022-08-11T12:23:50;97650.00;;;29.02;21.74
55914;BME280;58179;48.776;9.124;2022-08-11T12:26:35;97634.53;;;29.09;21.20
55914;BME280;58179;48.776;9.124;2022-08-11T12:29:22;97639.69;;;29.14;21.43
55914;BME280;58179;48.776;9.124;2022-08-11T12:31:54;97643.34;;;29.25;21.81
55914;BME280;58179;48.776;9.124;2022-08-11T12:34:22;97649.47;;;29.42;21.79
55914;BME280;58179;48.776;9.124;2022-08-11T12:36:57;97634.59;;;29.13;20.73
55914;BME280;58179;48.776;9.124;2022-08-11T12:39:27;97632.59;;;29.10;21.25
55914;BME280;58179;48.776;9.124;2022-08-11T12:42:16;97630.81;;;29.21;22.18
55914;BME280;58179;48.776;9.124;2022-08-11T12:45:03;97632.66;;;29.40;21.50
55914;BME280;58179;48.776;9.124;2022-08-11T12:48:02;97631.50;;;29.67;21.70
55914;BME280;58179;48.776;9.124;2022-08-11T12:50:54;97625.34;;;30.04;21.24
55914;BME280;58179;48.776;9.124;2022-08-11T12:53:48;97606.88;;;29.93;20.42
55914;BME280;58179;48.776;9.124;2022-08-11T12:56:18;97614.94;;;30.13;20.86
55914;BME280;58179;48.776;9.124;2022-08-11T12:59:23;97615.50;;;30.32;20.92
55914;BME280;58179;48.776;9.124;2022-08-11T13:02:17;97603.66;;;30.18;19.87
55914;BME280;58179;48.776;9.124;2022-08-11T13:05:07;97606.66;;;30.46;20.52
55914;BME280;58179;48.776;9.124;2022-08-11T13:07:34;97592.91;;;30.76;20.10
55914;BME280;58179;48.776;9.124;2022-08-11T13:10:04;97598.78;;;30.74;19.74
55914;BME280;58179;48.776;9.124;2022-08-11T13:12:31;97591.94;;;31.02;19.91
55914;BME280;58179;48.776;9.124;2022-08-11T13:15:15;97591.91;;;30.95;19.06
55914;BME280;58179;48.776;9.124;2022-08-11T13:17:43;97596.94;;;30.93;18.60
55914;BME280;58179;48.776;9.124;2022-08-11T13:20:12;97582.66;;;31.10;18.45
55914;BME280;58179;48.776;9.124;2022-08-11T13:22:41;97590.19;;;31.31;19.33
55914;BME280;58179;48.776;9.124;2022-08-11T13:25:11;97592.28;;;31.55;18.73
55914;BME280;58179;48.776;9.124;2022-08-11T13:27:39;97589.69;;;31.76;19.02
55914;BME280;58179;48.776;9.124;2022-08-11T13:30:06;97583.56;;;32.15;18.82
55914;BME280;58179;48.776;9.124;2022-08-11T13:32:51;97576.59;;;32.53;18.37
55914;BME280;58179;48.776;9.124;2022-08-11T13:35:20;97581.31;;;32.88;18.47
55914;BME280;58179;48.776;9.124;2022-08-11T13:37:48;97571.00;;;33.56;17.60
55914;BME280;58179;48.776;9.124;2022-08-11T13:40:18;97579.22;;;33.66;16.02
55914;BME280;58179;48.776;9.124;2022-08-11T13:42:45;97578.78;;;33.82;15.90
55914;BME280;58179;48.776;9.124;2022-08-11T13:45:13;97572.09;;;34.52;15.51
55914;BME280;58179;48.776;9.124;2022-08-11T13:47:40;97571.66;;;35.06;15.51
55914;BME280;58179;48.776;9.124;2022-08-11T13:50:07;97569.91;;;35.63;14.93
55914;BME280;58179;48.776;9.124;2022-08-11T13:52:36;97575.84;;;36.23;14.80
55914;BME280;58179;48.776;9.124;2022-08-11T13:55:08;97576.28;;;36.71;14.19
55914;BME280;58179;48.776;9.124;2022-08-11T13:57:35;97571.72;;;37.08;13.51
55914;BME280;58179;48.776;9.124;2022-08-11T14:00:07;97569.78;;;37.71;13.62
55914;BME280;58179;48.776;9.124;2022-08-11T14:02:40;97567.09;;;38.23;12.91
55914;BME280;58179;48.776;9.124;2022-08-11T14:05:12;97560.47;;;38.53;12.09
55914;BME280;58179;48.776;9.124;2022-08-11T14:07:47;97552.50;;;38.88;11.98
55914;BME280;58179;48.776;9.124;2022-08-11T14:10:16;97549.56;;;39.40;11.72
55914;BME280;58179;48.776;9.124;2022-08-11T14:12:54;97541.97;;;39.57;11.47
55914;BME280;58179;48.776;9.124;2022-08-11T14:15:43;97534.84;;;39.84;11.17
55914;BME280;58179;48.776;9.124;2022-08-11T14:18:16;97533.63;;;39.85;11.15
55914;BME280;58179;48.776;9.124;2022-08-11T14:20:45;97532.63;;;40.17;10.82
55914;BME280;58179;48.776;9.124;2022-08-11T14:23:37;97521.78;;;40.36;11.35
55914;BME280;58179;48.776;9.124;2022-08-11T14:26:06;97533.31;;;40.47;10.26
55914;BME280;58179;48.776;9.124;2022-08-11T14:28:49;97537.09;;;40.40;10.74
55914;BME280;58179;48.776;9.124;2022-08-11T14:31:18;97529.75;;;40.59;10.74
55914;BME280;58179;48.776;9.124;2022-08-11T14:33:45;97533.31;;;40.47;10.62
55914;BME280;58179;48.776;9.124;2022-08-11T14:36:12;97538.16;;;40.81;10.63
55914;BME280;58179;48.776;9.124;2022-08-11T14:38:39;97528.22;;;40.92;10.07
55914;BME280;58179;48.776;9.124;2022-08-11T14:41:06;97522.41;;;40.99;9.81
55914;BME280;58179;48.776;9.124;2022-08-11T14:43:52;97523.66;;;41.33;9.75
55914;BME280;58179;48.776;9.124;2022-08-11T14:46:39;97515.44;;;41.51;9.13
55914;BME280;58179;48.776;9.124;2022-08-11T14:49:25;97511.28;;;42.08;9.67
55914;BME280;58179;48.776;9.124;2022-08-11T14:51:53;97499.28;;;41.90;8.87
55914;BME280;58179;48.776;9.124;2022-08-11T14:54:24;97505.69;;;41.99;9.44
55914;BME280;58179;48.776;9.124;2022-08-11T14:57:10;97504.78;;;41.81;9.59
55914;BME280;58179;48.776;9.124;2022-08-11T14:59:37;97500.16;;;41.78;9.41